Aviation Digital Data Service (ADDS)

Output produced by METARs form (2127 UTC 24 March 2019)
found at http://www.aviationweather.gov/metar/data/
 
UNAA 242100Z 06002MPS 9999 -SHRA BKN013CB 02/01 Q1016 R20/290055 NOSIG RMK QFE739
TAF UNAA 241957Z 2421/2521 29003G08MPS 5000 -SHSN BKN013CB 
     TEMPO 2421/2424 3200 -FZRA -SHSN 
     FM250000 35003G10MPS 9999 SCT020CB 
     TEMPO 2500/2506 3500 -SHSN
       
TAF UOOO 241954Z 2421/2521 19005G10MPS 4000 BR BKN011CB 
     TEMPO 2421/2424 1000 BR BKN004CB 
     FM250000 19010G16MPS 1500 BLSN BKN006CB 
     TEMPO 2500/2506 0700 BLSN VV003 
     FM250600 20015G20MPS 0300 BLSN VV002
       
URWA 242100Z 24006MPS CAVOK 03/M01 Q1013 R27/290050 NOSIG RMK QFE762/1016
TAF URWA 242000Z 2421/2506 24006G12MPS 9999 BKN015 
     TEMPO 2421/2504 27003G08MPS 3100 BR BKN011
       
USCC 242100Z 14001MPS 2700 BR FU SCT010 M02/M03 Q1017 R09/000060 TEMPO 0300 FZFG VV003 RMK QFE742
TAF USCC 242000Z 2421/2521 16003G08MPS 0300 FZFG VV009 
     TEMPO 2421/2505 22003G08MPS 3100 BR FU VV003 
     FM250500 16003G08MPS 5000 BR FU BKN015 
     TEMPO 2505/2521 16005G12MPS 3100 -SNRA BKN011
       
UNBB 242100Z 30005MPS CAVOK M01/M03 Q1020 R24/CLRD60 NOSIG RMK QFE742
TAF UNBB 242000Z 2421/2521 28003MPS 4000 BR SCT020 
     TEMPO 2421/2506 0300 FZFG SCT002 BKN011 
     BECMG 2506/2507 9999 NSW
       
UWKE 242100Z 13004MPS CAVOK M00/M03 Q1010 R21/090070 NOSIG RMK QFE741/0988
TAF UWKE 241945Z 2421/2521 14006G11MPS 3100 -SNRA BR BKN011 
     TEMPO 2421/2506 09003G09MPS 0500 +SN FZDZ FZFG OVC002 
     BECMG 2506/2508 22006G11MPS 
     TEMPO 2508/2521 26008G15MPS 0800 +SHSNRA BKN003 BKN011CB
       
UUOB 242100Z 26004MPS CAVOK 02/M00 Q1011 R29/010060 NOSIG
TAF UUOB 242000Z 2421/2506 24005MPS 9999 BKN030
       
URMO 241700Z 16002MPS 9999 BKN037 02/M01 Q1016 R09/010070 NOSIG RMK QFE718/0958
TAF URMO 241400Z 2415/2424 12003G08MPS 9999 BKN020 
     TEMPO 2415/2418 3100 BR BKN006 BKN015
       
TAF ULPB 241356Z 2415/2424 25005G10MPS 6000 BKN015 
     TEMPO 2421/2424 23003G08MPS
       
USPP 242100Z 14004MPS 9999 BKN028 M01/M02 Q1014 R21/090060 NOSIG RMK QFE750
TAF USPP 241958Z 2421/2521 20003G08MPS 9999 SCT016 
     TEMPO 2421/2424 3100 BR 
     BECMG 2502/2504 12006G15MPS 
     BECMG 2504/2505 OVC011 
     BECMG 2509/2511 3100 -RA
       
UIBB 242100Z AUTO 09004MPS 9999 // ///057/// M06/M17 Q1013 RMK QFE717/0956
TAF UIBB 242000Z 2421/2521 09003MPS 9999 BKN016CB 
     TEMPO 2421/2509 1900 SHSN
       
TAF UUBP 241045Z 2412/2421 27004MPS 9000 BKN015 SCT020CB
       
UWKS 242100Z 15004MPS 9999 SCT040 M00/M02 Q1007 R24/190055 NOSIG RMK QFE741
TAF UWKS 241948Z 2421/2506 12003G08MPS 3100 -SNRA BR OVC011 
     TEMPO 2500/2506 02005G10MPS 1200 SNRA BR OVC004
       
UUOO 242100Z 26004MPS 7000 BKN026 01/00 Q1008 R30/290250 NOSIG RMK QFE743
TAF UUOO 242000Z 2421/2506 26003MPS 5000 BR BKN011
       
URWW 242100Z 27004MPS 9999 BKN017 01/M00 Q1008 R24/290060 TEMPO 0300 FZFG OVC002
TAF URWW 242000Z 2421/2506 28005G11MPS 3100 -SHSNRA BR OVC011 BKN020CB 
     TEMPO 2421/2503 26003G08MPS 0300 -FZRA FZFG OVC002 BKN020CB 
     TEMPO 2503/2506 26008G14MPS
       
UHBB 242100Z 28002MPS 4100 HZ FEW010 SCT033 M13/M14 Q1002 R36/090060 TEMPO 2000 HZ RMK QFE734/0979
TAF UHBB 241955Z 2421/2521 03003MPS 3100 HZ SCT030CB 
     TEMPO 2421/2507 2100 -SHSN SCT010 BKN015CB 
     FM250700 36005MPS 9999 SCT020
       
UIII 242100Z 16002MPS 4700 BR SCT041CB M02/M02 Q1013 R30/CLRD60 NOSIG RMK QFE715/0954
TAF AMD UIII 242010Z 2420/2521 16004MPS 2000 BR SCT020CB 
     TEMPO 2420/2501 0500 FZFG VV001 
     BECMG 2501/2502 9999 NSW 
     BECMG 2510/2512 32007MPS BKN008CB 
     TEMPO 2512/2521 32010G15MPS
       
UIAA 242100Z VRB01MPS 9999 NSC M12/M22 Q1012 R29/410160 NOSIG RMK QFE701/0934
TAF UIAA 242000Z 2421/2521 32005G13MPS 9999 SCT040CB 
     TEMPO 2421/2424 02003MPS
       
UWKD 242100Z 11003MPS CAVOK M00/M02 Q1009 R11/650345 NOSIG RMK QFE746/0995
TAF UWKD 241958Z 2421/2521 11005MPS 2100 -SNRA OVC010 TX00/2421Z TNM01/2500Z 
     TEMPO 2421/2511 07005G10MPS 0500 +SNRA OVC002 
     BECMG 2511/2512 29008G15MPS 
     FM251200 29008G15MPS 3100 -SNRA OVC011
       
UNEE 242100Z 29004MPS CAVOK M01/M03 Q1017 R23/CLRD60 NOSIG RMK QFE740
TAF UNEE 242000Z 2421/2521 28003MPS 3100 BR FU SCT020 
     TEMPO 2421/2505 0300 FZFG VV001 
     BECMG 2505/2507 9999 NSW
       
UHSS 242100Z 36003MPS 8000 BKN033CB M13/M15 Q1007 R01/810360 NOSIG RMK MT OBSC QFE754/1005
TAF UHSS 242000Z 2421/2603 VRB01MPS 9999 BKN030CB 
     BECMG 2500/2503 20003MPS
       
UMKK 242100Z 25005MPS 9999 FEW020 03/00 Q1016 R24/CLRD60 NOSIG RMK QFE761/1014
TAF UMKK 241959Z 2421/2521 24003G08MPS 9999 BKN011 
     TEMPO 2421/2506 22005MPS 3100 BR FEW005 
     BECMG 2506/2508 27005G10MPS 
     TEMPO 2506/2521 3100 -SHRA BKN012CB 
     BECMG 2512/2514 32006G11MPS
       
UHWW 242100Z 36001MPS 9999 NSC M03/M04 Q1005 R25L/0///70 NOSIG RMK QFE753
TAF UHWW 242000Z 2421/2521 35003MPS 9999 SCT030CB 
     BECMG 2500/2502 24003MPS BKN020 
     BECMG 2510/2512 4000 -SHSN HZ BKN011 BKN020CB
       
USSS 242100Z 18002MPS CAVOK M01/M03 Q1017 R26R/120050 NOSIG RMK QFE742/0989
TAF USSS 241957Z 2421/2521 10003MPS 3100 BR BKN011 
     TEMPO 2421/2504 0300 FZFG 
     FM250400 16003G12MPS 5000 -SHRASN BKN011 SCT020CB 
     BECMG 2506/2508 16006G17MPS 
     BECMG 2510/2512 3100 -SHRASN
       
UNKL 242100Z 28004MPS 9999 SCT017CB 00/M03 Q1014 R29/290145 NOSIG RMK QFE735
TAF UNKL 241947Z 2421/2521 29003G10MPS 8000 -SHSN SCT015CB 
     TEMPO 2421/2502 3100 -SHSN BKN013CB 
     FM250300 33003G10MPS 9999 SCT020CB 
     TEMPO 2503/2512 4000 -SHSN
       
UUOK 241930Z 28003MPS 9999 SCT033CB 00/00 Q1010 R12/////// NOSIG RMK QFE739/0986
TAF UUOK 241659Z 2418/2503 29005MPS 9999 BKN011 SCT020CB 
     TEMPO 2418/2421 4000 -SHSNRA SCT015CB
       
UWWW 242100Z 07005MPS 9000 -RA BKN029 00/M01 Q1005 R15/550240 NOSIG RMK QFE742/0990
TAF UWWW 242000Z 2421/2521 09006G12MPS 2100 -SNRA BR BKN007 TX02/2511Z
TNM01/2422Z 
     TEMPO 2421/2504 17008G13MPS 0300 +SHSNRA FZDZ FZFG VV002 
     BECMG 2504/2505 24009G15MPS 
     TEMPO 2505/2515 27016MPS 0800 +SHSNRA VV004
       
USCM 242100Z 04001MPS 9999 FEW040 M03/M05 Q1016 R18/090060 NOSIG RMK QFE724
TAF USCM 242000Z 2421/2506 16003G10MPS 5000 BR SCT020 
     TEMPO 2421/2506 0300 FZFG SCT011
       
URMM 242100Z 27005MPS 9999 OVC025 03/M01 Q1017 R30/090070 NOSIG RMK QFE734/0979
TAF URMM 241958Z 2421/2521 28003G08MPS 9999 BKN020 TX09/2512Z TNM02/2503Z 
     TEMPO 2421/2506 3100 BR BKN011 
     BECMG 2515/2517 09003G08MPS
       
UIUU 242100Z 19001MPS 9999 SCT043CB M03/M09 Q1014 R26/CLRD60 NOSIG RMK QFE716/0955
TAF UIUU 242000Z 2421/2521 10003G08MPS 9999 SCT030CB 
     TEMPO 2421/2521 3100 -SHSN BKN014CB
       
ULMM 242100Z 00000MPS 9999 BKN017 M03/M06 Q0990 R31/290055 NOSIG RMK QFE735
TAF ULMM 241950Z 2421/2521 28003MPS 9999 BKN011 
     TEMPO 2421/2503 VRB01MPS 4000 -SHSN BKN011CB 
     BECMG 2503/2504 36004G09MPS 
     TEMPO 2504/2515 36005G10MPS 2200 -SHSN SCT007 BKN011CB 
     TEMPO 2515/2521 33003MPS 3100 -SHSN BKN011CB
       
URMN 242100Z 00000MPS 9999 BKN031CB OVC/// 03/M01 Q1016 R24/////// NOSIG RMK QFE725
TAF URMN 242000Z 2421/2506 24003MPS 9999 BKN020 
     TEMPO 2421/2503 3100 BR BKN011
       
USNN 242100Z 23001MPS 9999 BKN046 M04/M06 Q1021 R21/0///65 NOSIG RMK QFE761
TAF USNN 242000Z 2421/2521 21003MPS 3100 BR BKN005 
     TEMPO 2421/2503 VRB01MPS 0500 FZFG VV002 
     BECMG 2503/2505 5000 -SN BR BKN015 OVC030 
     BECMG 2506/2507 18006MPS
       
UHHH 242100Z 13002MPS CAVOK M09/M14 Q1003 R23L/090060 NOSIG RMK QFE746/0995
TAF UHHH 241950Z 2421/2603 10003MPS 9999 SCT025CB 
     TEMPO 2502/2512 05006MPS 2000 SHSN SCT006 SCT020CB
       
UWOO 242100Z 11006MPS CAVOK 03/01 Q1010 R08/150053 NOSIG RMK QFE747/0996
TAF UWOO 241956Z 2421/2521 12009G14MPS 3100 -SHRA BR OVC011 BKN015CB TX03/2512Z
TN00/2501Z 
     TEMPO 2421/2506 14010G17MPS 0500 SHSNRA FG VV003 
     BECMG 2506/2507 22009G14MPS 
     TEMPO 2507/2521 1000 SHSN BLSN OVC004 BKN015CB
       
UWOR 242100Z 17005MPS 9000 -SHRA BKN042CB 04/03 Q1015 R25/CLRD65 NOSIG RMK QFE738/0984
TAF UWOR 241958Z 2421/2506 16007G13MPS 3100 -RA BR BKN011 
     TEMPO 2421/2506 15010G16MPS 0300 RA FG VV002
       
URKK 242100Z 23004MPS CAVOK 02/M01 Q1019 R23L/CLRD70 NOSIG RMK QFE761
TAF URKK 241955Z 2421/2521 23003G08MPS 9999 BKN030CB 
     TEMPO 2421/2506 3100 BR BKN011 BKN020CB
       
TAF UERP 242000Z 2421/2521 VRB01MPS 9999 SCT015 
     TEMPO 2421/2503 0400 FZFG VV002
       
ULOO 242100Z AUTO 22004MPS 8000 // NCD 01/M06 Q1009 RMK QFE752
TAF ULOO 241059Z 2412/2421 28007G12MPS 6000 SCT020 
     TEMPO 2412/2415 30009G16MPS 
     BECMG 2416/2418 25005G10MPS
       
ULLI 242100Z 25003MPS CAVOK 01/M04 Q1004 R28L/090060 NOSIG
TAF ULLI 241957Z 2421/2521 26005G10MPS 9999 BKN025 
     TEMPO 2421/2509 24004G09MPS 3100 -RA BR BKN011 
     FM250900 28004G09MPS 4000 -RASN BKN011 BKN020 
     TEMPO 2509/2521 30004MPS 3100 -SHSNRA BR BKN011 BKN017CB
       
USTR 242100Z 18004MPS CAVOK M01/M05 Q1018 R12/CLRD65 NOSIG RMK QFE755/1007
TAF USTR 241939Z 2421/2521 16004MPS 9999 SCT020 
     TEMPO 2421/2503 1000 MIFG BR 
     BECMG 2503/2505 16007G14MPS 
     FM251800 16007G14MPS 4000 -SHSNRA BKN015CB
       
UUEE 242100Z 25004MPS CAVOK 00/M00 Q1006 R24C/510245 R24L/510251 NOSIG
TAF UUEE 241954Z 2421/2521 29005MPS 6000 SCT011 TX05/2512Z TNM02/2503Z 
     TEMPO 2501/2506 2100 BR FEW004 
     BECMG 2514/2516 22005MPS
       
URMT 242100Z 29007MPS 9999 SCT030 00/M04 Q1015 R25/010070 NOSIG RMK QFE723
TAF URMT 242000Z 2421/2506 28006G13MPS 9999 SCT011 BKN020CB 
     TEMPO 2421/2503 3100 BR SCT005 BKN020CB
       
URSS 242100Z 05004MPS 9999 SCT080 02/M00 Q1020 R02/010070 R06/010070 NOSIG RMK R06/00000MPS QFE764
TAF URSS 241956Z 2421/2521 05006MPS 9999 FEW040 SCT100 
     BECMG 2508/2510 18005MPS 
     BECMG 2510/2512 28005G10MPS 
     BECMG 2516/2517 05007MPS
       
UHMM 242100Z 10002MPS 070V150 9999 NSC M22/M25 Q0997 R10/82//40 RMK QFE733
TAF UHMM 241955Z 2421/2603 09003MPS 9999 NSC 
     BECMG 2423/2424 01003G10MPS
       
UWGG 242100Z 17002MPS 6000 -SN OVC010 00/M02 Q1006 R18L/190045 NOSIG
TAF UWGG 241959Z 2421/2521 17003MPS 3500 -SN BKN011 TX02/2512Z TNM00/2421Z 
     TEMPO 2421/2503 19005G10MPS 1000 SHSN BKN005CB 
     BECMG 2503/2504 30003MPS
       
USRR 242100Z 22002MPS CAVOK M04/M06 Q1020 R07/19//60 NOSIG RMK QFE760
TAF USRR 241955Z 2421/2521 20003MPS 3100 BR BKN011 
     TEMPO 2421/2504 0400 FZFG VV001 
     FM250600 25003G08MPS 5000 -SN BKN015
       
UUYY 242100Z 19003MPS CAVOK 02/M02 Q1005 R18/CLRD61 NOSIG RMK QFE746/0994
TAF AMD UUYY 242000Z 2421/2521 18003G08MPS 6000 BKN011 BKN015CB 
     TEMPO 2421/2503 21007G14MPS 2100 -SHRASN BKN012CB
       
ULAA 242100Z 22003MPS 160V260 9999 BKN013CB 01/M00 Q0995 R26/910360 NOSIG RMK QFE745/0993
TAF ULAA 242000Z 2421/2521 21003MPS 5000 -SN SCT006 BKN011 
     TEMPO 2421/2423 18004MPS 0800 +SHSN BKN003 BKN010CB 
     TEMPO 2423/2506 24004MPS 2100 -SHSN BR BKN004 BKN011CB 
     TEMPO 2506/2512 27003G09MPS 3100 -SHSN BKN011CB
       
UNNT 242100Z VRB01MPS CAVOK M01/M04 Q1020 R25/190065 R34/110070 NOSIG RMK QFE755/1007
TAF UNNT 242000Z 2421/2521 30003MPS 3100 BR BKN011 
     TEMPO 2421/2505 0300 -SHSN FZFG BKN002 BKN011CB 
     FM250500 36003G08MPS 9999 BKN020 
     BECMG 2514/2515 NSC
       
UNOO 242100Z 27001MPS 2000 R25/2000N BR SCT020 M06/M07 Q1024 R25/CLRD60 NOSIG RMK QFE760
TAF UNOO 241950Z 2421/2521 VRB01MPS 3100 BR FU SCT011 
     TEMPO 2421/2506 0200 FZFG VV002 
     FM250600 15003MPS 6000 NSC 
     TEMPO 2517/2521 1000 BR FU BKN003
       
UWSS 242100Z 30003MPS 4000 BR OVC007 M00/M01 Q1004 R12/850339 TEMPO 2100 BR OVC005 RMK QFE741
TAF UWSS 242000Z 2421/2506 28003MPS 1600 BR OVC004 
     TEMPO 2421/2424 VRB01MPS 0500 SNRA FZFG VV003 
     FM250000 28006MPS 3100 BR OVC005 
     TEMPO 2500/2506 30003MPS 0700 FZFG VV003
       
UUDL 242100Z 25003MPS 5000 BR BKN007 OVC046 00/M00 Q1003 R23/620347 NOSIG RMK QFE744
TAF UUDL 242000Z 2421/2521 28003MPS 6000 -SN OVC010 
     TEMPO 2421/2501 1000 BR BKN005 OVC010
       
UWUU 242100Z 05001MPS 4500 BR OVC040 M01/M03 Q1013 R14R/0///60 NOSIG RMK QFE749/0999
TAF UWUU 242000Z 2421/2521 11003G08MPS 4000 BR BKN020 
     TEMPO 2421/2424 VRB01MPS 0200 FZFG VV003 
     TEMPO 2500/2506 15006G12MPS 3100 -SNRA BR OVC011 
     FM250600 18007G14MPS 5000 -RA OVC016 
     TEMPO 2506/2512 15009G16MPS 3100 -SHRA OVC011CB 
     TEMPO 2512/2521 20009G16MPS 3100 -SHRA OVC011CB
       
UHMA 242100Z 07011MPS 050V200 3200 -SN BLSN BKN043 M06/M08 Q0989 R/SNOCLO NOSIG RMK END R01/07011MPS QFE738/0984
TAF UHMA 241938Z 2421/2521 05009G14MPS 1500 SN BLSN SCT005 BKN025 
     TEMPO 2421/2515 10014G19MPS 0300 +SHSN BLSN BKN005 BKN015CB 
     FM251500 05015G20MPS 0700 +SN BLSN BKN005 
     TEMPO 2515/2521 10023G28MPS 0300 BLSN VV001
       
URML 242100Z 30004MPS 9999 NSC 06/M03 Q1016 R32/01//70 NOSIG RMK QFE762/1016
TAF URML 242000Z 2421/2506 26003G10MPS 9999 BKN017 
     TEMPO 2421/2503 5000 BR SCT011
       
URKA 242100Z AUTO 14004MPS 9999 // NCD 01/M01 Q1019 RMK QFE760/1014
TAF URKA 241655Z 2418/2518 25003G08MPS 9999 SCT030 
     TEMPO 2418/2506 29003G08MPS 3100 BR SCT011 BKN020 
     TEMPO 2506/2515 18006G12MPS
       
UUWW 242100Z 27004MPS CAVOK M00/M02 Q1006 R24/290045 NOSIG
TAF UUWW 241953Z 2421/2521 26005MPS 6000 BKN007 TX04/2515Z TNM01/2504Z 
     TEMPO 2421/2506 3100 BR SCT004 
     BECMG 2507/2509 SCT011 
     BECMG 2514/2516 20003MPS
       
UWLW 242100Z 03002MPS 8000 OVC033 00/M02 Q1007 R20/CLRD60 NOSIG RMK QFE750
TAF UWLW 241945Z 2421/2521 03003MPS 3100 -RASN BR BKN011 
     TEMPO 2421/2506 08007MPS 0300 +SNRA FZFG VV002 
     TEMPO 2506/2512 28007G13MPS 0300 +SNRA VV002 
     TEMPO 2512/2521 24005G10MPS
       
UEEE 242100Z 34002MPS CAVOK M16/M19 Q1011 R23L/450055 NOSIG RMK QFE749
TAF UEEE 242000Z 2421/2603 32003G08MPS CAVOK 
     TEMPO 2421/2423 VRB01MPS 2100 BR FEW006 OVC070
       
UHPP 242100Z 00000MPS 9999 NSC M06/M06 Q0986 R34L/420355 NOSIG RMK MT OBSC QFE736/0982
TAF UHPP 241949Z 2421/2603 35003G12MPS 9999 BKN030CB 
     TEMPO 2421/2424 10003MPS 1000 -SHSN BR BKN003 OVC015CB 
     FM250000 34003G12MPS 9999 SCT030CB